Tiempo atmosférico en la estación meteorológica de Fraga, Huesca (170 m.)



Fecha
DESCASC
Temp. máxima en grados centígrados (hora)
DESCASC
Temp. mínima en grados centígrados (hora)
DESCASC
Temp. media en grados centígrados
DESCASC
Racha de viento máxima en m/sg (hora)
DESCASC
Velocidad máxima media en intervalos de 10 minutos(hora)
DESCASC
Precipitaciones diarias en mm
DESCASC
Precipitaciones de 00:00 a 06:00 en mm
DESCASC
Precipitaciones de 06:00 a 12:00 en mm
DESCASC
Precipitaciones de 12:00 a 18:00 en mm
DESCASC
Precipitaciones de 18:00 a 24:00 en mm
DESCASC
05-12-2019 11 (15:20) 8.3 (10:00) 9.7 10 (02:30) 6.94 (02:30) 7.6 2 4.6 0.8 0.2
04-12-2019 10 (23:59) 3.4 (07:40) 6.7 5.28 (19:00) 2.78 (15:30) 10.2 0 1.4 6.4 2.4
03-12-2019 9.4 (15:10) 3 (00:00) 6.2 4.17 (00:30) 2.5 (01:30) 0 0 0 0 0
02-12-2019 13.8 (16:20) 1.6 (00:00) 7.7 5.83 (21:20) 3.61 (21:10) 0 0 0 0 0
01-12-2019 14.9 (15:30) 5.9 (00:00) 10.4 6.39 (00:20) 4.17 (05:30) 0 0 0 0 0
30-11-2019 17.1 (16:00) 4.3 (00:00) 10.7 14.17 (22:10) 5.83 (22:10) 0 0 0 0 0
29-11-2019 19.8 (13:10) 11.3 (00:00) 15.5 12.5 (13:50) 8.33 (14:40) 0 0 0 0 0
28-11-2019 18.9 (13:40) 10.2 (00:00) 14.5 10 (13:10) 6.67 (13:10) 0 0 0 0 0
27-11-2019 18.2 (15:50) 8.4 (00:00) 13.3 12.78 (12:00) 8.89 (12:00) 0 0 0 0 0
26-11-2019 16.7 (16:20) 4.9 (00:00) 10.8 3.33 (23:10) 2.22 (21:00) 0 0 0 0 0
25-11-2019 18.8 (15:20) 6.9 (00:00) 12.8 10.28 (15:50) 6.67 (15:50) 0 0 0 0 0
24-11-2019 14.4 (15:30) 8.4 (00:00) 11.4 16.11 (03:30) 9.72 (11:30) 0 0 0 0 0
23-11-2019 12.6 (15:00) 9.2 (00:00) 10.9 21.11 (21:30) 13.61 (15:30) 0.6 0 0.4 0.2 0
22-11-2019 13.7 (22:20) 3.7 (00:00) 8.7 15.83 (23:30) 7.5 (23:30) 4.2 0 0 1 3.2
21-11-2019 14.2 (15:30) 3.5 (00:00) 8.8 3.89 (17:20) 2.5 (17:20) 0 0 0 0 0
20-11-2019 12.1 (15:30) -0.6 (-00:0) 5.8 3.33 (13:30) 1.94 (16:50) 0 0 0 0 0
19-11-2019 12.4 (16:40) -0.4 (00:00) 6 5.83 (03:00) 3.33 (02:20) 0 0 0 0 0
18-11-2019 14 (15:50) 4.5 (00:00) 9.3 8.61 (17:00) 5.28 (17:10) 0 0 0 0 0
17-11-2019 13.3 (14:10) 5.2 (00:00) 9.3 12.5 (11:50) 8.61 (12:40) 0.6 0 0 0.4 0.2
16-11-2019 9.1 (15:10) 0.6 (00:00) 4.9 7.5 (15:20) 5 (15:20) 0 0 0 0 0
15-11-2019 10.8 (15:00) 2.6 (00:00) 6.7 9.17 (17:20) 6.94 (17:20) 0 0 0 0 0
14-11-2019 11.6 (15:20) 5.6 (00:00) 8.6 12.22 (12:00) 8.33 (09:20) 2 0 2 0 0
13-11-2019 15.2 (16:00) 7.9 (00:00) 11.5 10.83 (17:00) 6.94 (16:10) 6.8 0 6.8 0 0
12-11-2019 15.2 (14:30) 6.8 (00:00) 11 16.67 (16:30) 11.11 (14:20) 0 0 0 0 0
11-11-2019 14.4 (14:00) 4.3 (03:30) 9.3 15.83 (20:20) 9.17 (20:30) 0 0 0 0 0
10-11-2019 11.8 (13:30) 5.6 (00:00) 8.7 17.78 (12:40) 11.39 (13:00) 0 0 0 0 0
09-11-2019 16.2 (13:50) 7.7 (00:00) 12 15.56 (23:59) 9.72 (23:59) 0 0 0 0 0
08-11-2019 14.3 (14:10) 5.7 (00:00) 10 23.89 (16:20) 14.72 (16:20) 0 0 0 0 0
07-11-2019 15 (12:20) 7.4 (00:00) 11.2 13.06 (15:20) 8.06 (15:20) 0 0 0 0 0
06-11-2019 17.6 (15:20) 10 (00:00) 13.8 16.11 (09:30) 10.56 (11:50) 0 0 0 0 0

Gráficas

Temp. máximas Temp. mínimas Temp. medias Precipitaciones Rachas de viento máximas Velocidades máximas media en intervalos de 10 minutos

Datos horarios

Fecha y hora oficial Temperatura (ºC) Velocidad del viento (km/h) Dirección del viento Racha (km/h) Dirección de racha Precipitación (mm) Presión (hPa) Tendencia (hPa) Humedad (%)
2019-12-05 23:00:00 9.4 0 Calma 6 Sudoeste 0 -- -- 96
2019-12-05 22:00:00 9.5 2 Norte 7 Sudeste 0 -- -- 96
2019-12-05 21:00:00 9.9 0 Calma 7 Sur 0.2 -- -- 96
2019-12-05 20:00:00 10.3 3 Sur 9 Nordeste 0 -- -- 95
2019-12-05 19:00:00 10.5 8 Nordeste 12 Nordeste 0 -- -- 94
2019-12-05 18:00:00 10.7 3 Nordeste 8 Oeste 0.2 -- -- 95
2019-12-05 17:00:00 10.9 2 Sur 6 Sudeste 0.2 -- -- 94
2019-12-05 16:00:00 10.8 4 Sudeste 10 Este 0.2 -- -- 91
2019-12-05 15:00:00 10.9 0 Calma 8 Noroeste 0 -- -- 87
2019-12-05 14:00:00 10.5 4 Noroeste 17 Noroeste 0 -- -- 88
2019-12-05 13:00:00 9.9 12 Noroeste 18 Norte 0.2 -- -- 89
2019-12-05 12:00:00 9.4 10 Noroeste 19 Noroeste 0.4 -- -- 93
2019-12-05 11:00:00 8.7 8 Noroeste 16 Noroeste 0.6 -- -- 95
2019-12-05 10:00:00 8.3 9 Noroeste 16 Noroeste 1.2 -- -- 96
2019-12-05 09:00:00 8.6 8 Noroeste 15 Norte 1 -- -- 96
2019-12-05 08:00:00 8.9 6 Noroeste 12 Noroeste 0.6 -- -- 96
2019-12-05 07:00:00 9.1 4 Norte 13 Noroeste 0.8 -- -- 96
2019-12-05 06:00:00 9.4 7 Noroeste 12 Noroeste 0.6 -- -- 93
2019-12-05 05:00:00 9.8 5 Norte 18 Este 0.4 -- -- 91
2019-12-05 04:00:00 10.3 17 Nordeste 35 Nordeste 0.2 -- -- 87
2019-12-05 03:00:00 10 20 Nordeste 36 Nordeste 0.8 -- -- 91
2019-12-05 02:00:00 10.6 18 Nordeste 31 Nordeste 0 -- -- 87
2019-12-05 01:00:00 10.2 2 Norte 22 Nordeste 0 -- -- 88
2019-12-05 00:00:00 10 10 Nordeste 18 Este 0 -- -- 90
2019-12-04 23:00:00 9.3 6 Este 14 Este 0 -- -- 93
2019-12-04 22:00:00 9.5 3 Nordeste 15 Noroeste 1 -- -- 93
2019-12-04 21:00:00 8.4 9 Oeste 17 Norte 0.2 -- -- 93
2019-12-04 20:00:00 8.8 10 Norte 17 Nordeste 0.6 -- -- 95
2019-12-04 19:00:00 8.6 7 Norte 19 Norte 0.6 -- -- 95
2019-12-04 18:00:00 8.4 6 Noroeste 14 Norte 1.6 -- -- 94
2019-12-04 17:00:00 8.4 6 Norte 14 Norte 2 -- -- 94
2019-12-04 16:00:00 8.1 5 Noroeste 15 Noroeste 0.8 -- -- 94
2019-12-04 15:00:00 7.6 7 Noroeste 13 Noroeste 0.2 -- -- 93
2019-12-04 14:00:00 7.3 8 Noroeste 18 Noroeste 0.4 -- -- 92
2019-12-04 13:00:00 6.4 8 Norte 15 Noroeste 1.4 -- -- 92
2019-12-04 12:00:00 5.3 6 Norte 13 Noroeste 1 -- -- 92
2019-12-04 11:00:00 5 4 Norte 14 Norte 0.4 -- -- 90
2019-12-04 10:00:00 4.5 8 Norte 16 Norte 0 -- -- 89
2019-12-04 09:00:00 4.3 10 Norte 16 Norte 0 -- -- 89
2019-12-04 08:00:00 3.5 3 Norte 6 Noroeste 0 -- -- 93
2019-12-04 07:00:00 4 2 Oeste 5 Norte 0 -- -- 92
2019-12-04 06:00:00 3.8 2 Nordeste 5 Oeste 0 -- -- 93
2019-12-04 05:00:00 3.8 0 Calma 4 Sudoeste 0 -- -- 91
2019-12-04 04:00:00 4.4 0 Calma 4 Sur 0 -- -- 89
2019-12-04 03:00:00 4.8 3 Norte 12 Noroeste 0 -- -- 89
2019-12-04 02:00:00 4.7 0 Calma 6 Norte 0 -- -- 89
2019-12-04 01:00:00 4.5 0 Calma 8 Noroeste 0 -- -- 89
2019-12-04 00:00:00 4.8 3 Norte 5 Oeste 0 -- -- 88
2019-12-03 23:00:00 5.2 0 Calma 3 Nordeste 0 -- -- 87
2019-12-03 22:00:00 5.2 2 Norte 5 Noroeste 0 -- -- 86
2019-12-03 21:00:00 5.3 0 Calma 5 Sudoeste 0 -- -- 84
2019-12-03 20:00:00 5.6 0 Calma 5 Sudoeste 0 -- -- 82
2019-12-03 19:00:00 5.9 0 Calma 8 Nordeste 0 -- -- 81
2019-12-03 18:00:00 6.7 5 Nordeste 11 Nordeste 0 -- -- 78
2019-12-03 17:00:00 7.9 7 Nordeste 12 Este 0 -- -- 73
2019-12-03 16:00:00 8.7 8 Nordeste 10 Este 0 -- -- 68
2019-12-03 15:00:00 9.3 2 Oeste 9 Nordeste 0 -- -- 65
2019-12-03 14:00:00 8.3 2 Nordeste 13 Noroeste 0 -- -- 68
2019-12-03 13:00:00 9 5 Sudoeste 10 Oeste 0 -- -- 65
2019-12-03 12:00:00 7.6 0 Calma 10 Nordeste 0 -- -- 69
2019-12-03 11:00:00 6.2 0 Calma 5 Oeste 0 -- -- 75
2019-12-03 10:00:00 4.4 0 Calma 4 Sur 0 -- -- 85
2019-12-03 09:00:00 3.3 0 Calma 8 Sudoeste 0 -- -- 87
2019-12-03 08:00:00 3 4 Sur 6 Sudoeste 0 -- -- 87
2019-12-03 07:00:00 3.1 0 Calma 11 Oeste 0 -- -- 86
2019-12-03 06:00:00 3.4 5 Sudoeste 14 Sudoeste 0 -- -- 84
2019-12-03 05:00:00 3.5 3 Sudoeste 9 Sudoeste 0 -- -- 85
2019-12-03 04:00:00 4 9 Sudoeste 14 Sudoeste 0 -- -- 85
2019-12-03 03:00:00 4.3 6 Sudoeste 10 Oeste 0 -- -- 86
2019-12-03 02:00:00 4.9 7 Sur 14 Sudoeste 0 -- -- 84
2019-12-03 01:00:00 5.5 8 Sudoeste 15 Sudoeste 0 -- -- 83
2019-12-03 00:00:00 6.1 7 Sudoeste 14 Sudoeste 0 -- -- 84
2019-12-02 23:00:00 6.7 5 Sudoeste 11 Sudoeste 0 -- -- 83
2019-12-02 22:00:00 7.8 4 Sudoeste 21 Sudoeste 0 -- -- 80
2019-12-02 21:00:00 8.8 9 Sudoeste 15 Sudoeste 0 -- -- 78
2019-12-02 20:00:00 9.5 7 Sudoeste 10 Sudoeste 0 -- -- 77
2019-12-02 19:00:00 10.5 4 Sur 10 Sur 0 -- -- 74
2019-12-02 18:00:00 11 5 Sur 10 Sudoeste 0 -- -- 75
2019-12-02 17:00:00 12.8 6 Sudoeste 12 Sudoeste 0 -- -- 69
2019-12-02 16:00:00 13.6 3 Sur 9 Sur 0 -- -- 67
2019-12-02 15:00:00 12.4 3 Noroeste 10 Sur 0 -- -- 72
2019-12-02 14:00:00 11.1 5 Sur 12 Sur 0 -- -- 75
2019-12-02 13:00:00 9.9 6 Sur 13 Sur 0 -- -- 80
2019-12-02 12:00:00 7.9 9 Sur 15 Sur 0 -- -- 89
2019-12-02 11:00:00 5.7 0 Calma 8 Sur 0 -- -- 98
2019-12-02 10:00:00 3.5 3 Sudeste 6 Sur 0 -- -- 97
2019-12-02 09:00:00 1.9 0 Calma 3 Sudeste 0 -- -- 96
2019-12-02 08:00:00 1.7 0 Calma 3 Oeste 0 -- -- 96
2019-12-02 07:00:00 1.6 0 Calma 4 Noroeste 0 -- -- 96
2019-12-02 06:00:00 2.1 2 Oeste 5 Oeste 0 -- -- 95
2019-12-02 05:00:00 2.5 0 Calma 6 Noroeste 0 -- -- 95
2019-12-02 04:00:00 2.9 4 Noroeste 10 Oeste 0 -- -- 94
2019-12-02 03:00:00 3.8 0 Calma 5 Noroeste 0 -- -- 94
2019-12-02 02:00:00 4.3 3 Nordeste 8 Noroeste 0 -- -- 93
2019-12-02 01:00:00 5.2 0 Calma 4 Sur 0 -- -- 90
2019-12-02 00:00:00 5.9 0 Calma 4 Oeste 0 -- -- 89
2019-12-01 23:00:00 6.4 0 Calma 9 Este 0 -- -- 88
2019-12-01 22:00:00 7.7 6 Este 12 Este 0 -- -- 86
2019-12-01 21:00:00 8 2 Sudoeste 7 Sur 0 -- -- 81
2019-12-01 20:00:00 9.7 2 Este 3 Nordeste 0 -- -- 76
2019-12-01 19:00:00 10.4 0 Calma 3 Sudeste 0 -- -- 73
2019-12-01 18:00:00 12.4 2 Sudeste 5 Sur 0 -- -- 65
2019-12-01 17:00:00 14.2 3 Sudoeste 11 Oeste 0 -- -- 58
2019-12-01 16:00:00 14.8 5 Oeste 14 Oeste 0 -- -- 58
2019-12-01 15:00:00 14.2 6 Noroeste 13 Sudoeste 0 -- -- 61
2019-12-01 14:00:00 14 4 Oeste 11 Oeste 0 -- -- 64
2019-12-01 13:00:00 13.3 7 Oeste 12 Oeste 0 -- -- 69
2019-12-01 12:00:00 12.3 5 Oeste 8 Oeste 0 -- -- 74
2019-12-01 11:00:00 10.5 2 Este 5 Oeste 0 -- -- 83
2019-12-01 10:00:00 8.2 0 Calma 8 Oeste 0 -- -- 91
2019-12-01 09:00:00 7.3 0 Calma 4 Norte 0 -- -- 93
2019-12-01 08:00:00 7.3 2 Noroeste 3 Noroeste 0 -- -- 90
2019-12-01 07:00:00 8.2 0 Calma 9 Sudoeste 0 -- -- 88
2019-12-01 06:00:00 9 2 Sudoeste 20 Sudoeste 0 -- -- 86
2019-12-01 05:00:00 9.7 9 Sudoeste 15 Sudoeste 0 -- -- 85
2019-12-01 04:00:00 10.8 4 Sudoeste 6 Sudoeste 0 -- -- 82
2019-12-01 03:00:00 11 2 Sudoeste 17 Noroeste 0 -- -- 84
2019-12-01 02:00:00 12 6 Noroeste 19 Noroeste 0 -- -- 82
2019-12-01 01:00:00 12.4 10 Noroeste 23 Oeste 0 -- -- 79
2019-12-01 00:00:00 12.2 0 Calma 8 Norte 0 -- -- 82
2019-11-30 23:00:00 12.7 10 Noroeste 51 Noroeste 0 -- -- 78
2019-11-30 22:00:00 13 17 Sur 48 Noroeste 0 -- -- 79
2019-11-30 21:00:00 13.8 12 Sudeste 22 Sudeste 0 -- -- 83
2019-11-30 20:00:00 13.1 4 Sudeste 9 Este 0 -- -- 75
2019-11-30 19:00:00 13.6 0 Calma 5 Sur 0 -- -- 72
2019-11-30 18:00:00 14.4 3 Sudeste 6 Nordeste 0 -- -- 69
2019-11-30 17:00:00 16.2 4 Este 10 Este 0 -- -- 62
2019-11-30 16:00:00 17.1 6 Este 11 Este 0 -- -- 60
2019-11-30 15:00:00 16 4 Oeste 11 Oeste 0 -- -- 63
2019-11-30 14:00:00 14.9 8 Oeste 15 Oeste 0 -- -- 65
2019-11-30 13:00:00 12.6 4 Oeste 10 Oeste 0 -- -- 71
2019-11-30 12:00:00 12.1 0 Calma 7 Oeste 0 -- -- 71
2019-11-30 11:00:00 10.1 2 Sur 5 Oeste 0 -- -- 77
2019-11-30 10:00:00 6.8 3 Norte 8 Noroeste 0 -- -- 90
2019-11-30 09:00:00 5.2 0 Calma 6 Noroeste 0 -- -- 94
2019-11-30 08:00:00 4.5 0 Calma 4 Noroeste 0 -- -- 92
2019-11-30 07:00:00 4.7 0 Calma 6 Noroeste 0 -- -- 92
2019-11-30 06:00:00 4.9 4 Noroeste 9 Oeste 0 -- -- 91
2019-11-30 05:00:00 6.1 2 Norte 5 Noroeste 0 -- -- 90
2019-11-30 04:00:00 5.8 0 Calma 6 Noroeste 0 -- -- 90
2019-11-30 03:00:00 6.4 4 Oeste 5 Noroeste 0 -- -- 88
2019-11-30 02:00:00 7.8 3 Noroeste 6 Noroeste 0 -- -- 85
2019-11-30 01:00:00 9.5 3 Nordeste 5 Norte 0 -- -- 84
2019-11-30 00:00:00 11.3 0 Calma 10 Sudoeste 0 -- -- 80
2019-11-29 23:00:00 12.1 3 Sur 11 Sur 0 -- -- 77
2019-11-29 22:00:00 12.2 2 Sudoeste 11 Sudoeste 0 -- -- 74
2019-11-29 21:00:00 12.7 2 Noroeste 15 Sudoeste 0 -- -- 70
2019-11-29 20:00:00 13.8 6 Sur 17 Sur 0 -- -- 67
2019-11-29 19:00:00 15.1 9 Sur 21 Oeste 0 -- -- 61
2019-11-29 18:00:00 16 11 Oeste 29 Oeste 0 -- -- 56
2019-11-29 17:00:00 17.6 16 Oeste 36 Oeste 0 -- -- 50
2019-11-29 16:00:00 19 21 Oeste 40 Oeste 0 -- -- 48
2019-11-29 15:00:00 19.3 24 Oeste 39 Oeste 0 -- -- 49
2019-11-29 14:00:00 18.5 23 Oeste 45 Oeste 0 -- -- 51
2019-11-29 13:00:00 19.4 24 Oeste 39 Oeste 0 -- -- 55
2019-11-29 12:00:00 17.9 22 Oeste 37 Oeste 0 -- -- 59
2019-11-29 11:00:00 17 20 Oeste 28 Oeste 0 -- -- 63
2019-11-29 10:00:00 15.9 10 Noroeste 22 Oeste 0 -- -- 69
2019-11-29 09:00:00 14.6 10 Oeste 19 Noroeste 0 -- -- 72
2019-11-29 08:00:00 13.8 10 Noroeste 23 Sudoeste 0 -- -- 73
2019-11-29 07:00:00 12.1 8 Sudoeste 13 Sudoeste 0 -- -- 77
2019-11-29 06:00:00 11.8 0 Calma 6 Oeste 0 -- -- 76
2019-11-29 05:00:00 12.4 3 Sudoeste 10 Oeste 0 -- -- 73
2019-11-29 04:00:00 12.1 2 Sudoeste 4 Sudoeste 0 -- -- 73
2019-11-29 03:00:00 12.5 4 Oeste 10 Oeste 0 -- -- 70
2019-11-29 02:00:00 13.5 7 Oeste 17 Noroeste 0 -- -- 67
2019-11-29 01:00:00 14.2 2 Oeste 12 Sudoeste 0 -- -- 63
2019-11-29 00:00:00 14.8 9 Sudoeste 28 Sudoeste 0 -- -- 61
2019-11-28 23:00:00 15.6 13 Oeste 34 Oeste 0 -- -- 57
2019-11-28 22:00:00 15.2 8 Oeste 21 Sudoeste 0 -- -- 60
2019-11-28 21:00:00 15.4 6 Noroeste 21 Sudoeste 0 -- -- 58
2019-11-28 20:00:00 16.3 9 Sudoeste 32 Oeste 0 -- -- 54
2019-11-28 19:00:00 16.1 5 Oeste 12 Sudoeste 0 -- -- 56
2019-11-28 18:00:00 16.6 3 Oeste 9 Oeste 0 -- -- 58
2019-11-28 17:00:00 17.3 5 Oeste 19 Oeste 0 -- -- 56
2019-11-28 16:00:00 18.2 14 Oeste 24 Oeste 0 -- -- 53
2019-11-28 15:00:00 18.7 9 Oeste 32 Oeste 0 -- -- 52
2019-11-28 14:00:00 18.8 18 Oeste 36 Oeste 0 -- -- 52
2019-11-28 13:00:00 17.9 14 Oeste 30 Oeste 0 -- -- 54
2019-11-28 12:00:00 17.1 15 Noroeste 27 Oeste 0 -- -- 56
2019-11-28 11:00:00 15 8 Oeste 14 Oeste 0 -- -- 63
2019-11-28 10:00:00 13.3 6 Noroeste 15 Noroeste 0 -- -- 65
2019-11-28 09:00:00 12.2 11 Noroeste 17 Oeste 0 -- -- 68
2019-11-28 08:00:00 11.2 3 Noroeste 12 Norte 0 -- -- 71
2019-11-28 07:00:00 10.7 8 Norte 13 Noroeste 0 -- -- 73
2019-11-28 06:00:00 10.9 2 Noroeste 12 Noroeste 0 -- -- 71
2019-11-28 05:00:00 11 7 Norte 10 Norte 0 -- -- 71
2019-11-28 04:00:00 11.6 5 Noroeste 19 Noroeste 0 -- -- 69
2019-11-28 03:00:00 11.9 10 Noroeste 17 Noroeste 0 -- -- 68
2019-11-28 02:00:00 11.9 8 Noroeste 18 Noroeste 0 -- -- 69
2019-11-28 01:00:00 12.4 6 Noroeste 12 Oeste 0 -- -- 67
2019-11-28 00:00:00 12.1 4 Norte 10 Norte 0 -- -- 66
2019-11-27 23:00:00 12.4 2 Sudoeste 14 Sudoeste 0 -- -- 65
2019-11-27 22:00:00 12 5 Sudoeste 9 Sudoeste 0 -- -- 68
2019-11-27 21:00:00 11.8 8 Sur 15 Sur 0 -- -- 71
2019-11-27 20:00:00 13 0 Calma 4 Norte 0 -- -- 64
2019-11-27 19:00:00 13.3 4 Sudoeste 6 Sudoeste 0 -- -- 62
2019-11-27 18:00:00 15.1 4 Noroeste 9 Noroeste 0 -- -- 55
2019-11-27 17:00:00 17.1 4 Noroeste 25 Oeste 0 -- -- 50
2019-11-27 16:00:00 17.9 19 Oeste 33 Oeste 0 -- -- 45
2019-11-27 15:00:00 17.8 19 Oeste 36 Oeste 0 -- -- 46
2019-11-27 14:00:00 17.5 24 Oeste 39 Oeste 0 -- -- 48
2019-11-27 06:00:00 10.7 4 Noroeste 16 Sudoeste 0 -- -- 83
2019-11-27 05:00:00 8.9 4 Nordeste 16 Norte 0 -- -- 94
2019-11-27 04:00:00 8.8 6 Norte 12 Norte 0 -- -- 95
2019-11-27 03:00:00 8.8 0 Calma 8 Noroeste 0 -- -- 93
2019-11-27 02:00:00 10 0 Calma 7 Nordeste 0 -- -- 90
2019-11-27 01:00:00 9.9 4 Nordeste 5 Nordeste 0 -- -- 90
2019-11-27 00:00:00 10.5 0 Calma 12 Sudeste 0 -- -- 89
2019-11-26 23:00:00 11.1 5 Sudeste 9 Sudeste 0 -- -- 89
2019-11-26 22:00:00 11.1 2 Oeste 7 Oeste 0 -- -- 88
2019-11-26 21:00:00 11.9 8 Sudeste 12 Sudeste 0 -- -- 84
2019-11-26 20:00:00 12.1 4 Nordeste 8 Noroeste 0 -- -- 83
2019-11-26 19:00:00 12.6 0 Calma 9 Este 0 -- -- 80
2019-11-26 18:00:00 13.8 3 Este 8 Sudeste 0 -- -- 76
2019-11-26 17:00:00 15.6 2 Sudoeste 7 Sudoeste 0 -- -- 70
2019-11-26 16:00:00 16.5 0 Calma 6 Oeste 0 -- -- 67
2019-11-26 15:00:00 14.3 3 Sudoeste 6 Oeste 0 -- -- 73
2019-11-26 14:00:00 13.6 2 Noroeste 8 Sudoeste 0 -- -- 76
2019-11-26 13:00:00 12.6 3 Sur 9 Sur 0 -- -- 79
2019-11-26 12:00:00 8.6 3 Sur 8 Sur 0 -- -- 95
2019-11-26 11:00:00 7.9 3 Sudoeste 6 Sudoeste 0 -- -- 96
2019-11-26 10:00:00 6 0 Calma 4 Noroeste 0 -- -- 98
2019-11-26 09:00:00 4.9 0 Calma 4 Oeste 0 -- -- 97
2019-11-26 08:00:00 4.9 0 Calma 2 Oeste 0 -- -- 96
2019-11-26 07:00:00 5 2 Norte 4 Oeste 0 -- -- 96
2019-11-26 06:00:00 5.5 0 Calma 5 Noroeste 0 -- -- 94
2019-11-26 05:00:00 6 0 Calma 5 Sudoeste 0 -- -- 94
2019-11-26 04:00:00 6.9 0 Calma 3 Oeste 0 -- -- 92
2019-11-26 03:00:00 7.8 0 Calma 4 Oeste 0 -- -- 91
2019-11-26 02:00:00 8.7 0 Calma 10 Sudoeste 0 -- -- 88
2019-11-26 01:00:00 9.3 2 Sur 12 Este 0 -- -- 87
2019-11-26 00:00:00 10.3 4 Sur 11 Este 0 -- -- 83
2019-11-25 23:00:00 11.4 0 Calma 10 Sudoeste 0 -- -- 80
2019-11-25 22:00:00 11.8 3 Sur 11 Nordeste 0 -- -- 79
2019-11-25 21:00:00 13 8 Este 14 Este 0 -- -- 74
2019-11-25 20:00:00 15.2 7 Noroeste 18 Oeste 0 -- -- 67
2019-11-25 19:00:00 15.1 4 Sudoeste 22 Oeste 0 -- -- 68
2019-11-25 18:00:00 16.7 7 Sudoeste 21 Oeste 0 -- -- 61
2019-11-25 17:00:00 17.9 14 Noroeste 31 Oeste 0 -- -- 55
2019-11-25 16:00:00 18.5 19 Noroeste 37 Oeste 0 -- -- 54
2019-11-25 15:00:00 18.5 20 Oeste 37 Oeste 0 -- -- 55
2019-11-25 14:00:00 16.9 6 Noroeste 9 Noroeste 0 -- -- 62
2019-11-25 13:00:00 15.2 2 Sudoeste 5 Noroeste 0 -- -- 67
2019-11-25 12:00:00 13 0 Calma 7 Sudoeste 0 -- -- 71
2019-11-25 11:00:00 11.6 3 Sur 9 Nordeste 0 -- -- 75
2019-11-25 10:00:00 10 0 Calma 4 Sudeste 0 -- -- 79
2019-11-25 09:00:00 7.3 0 Calma 6 Sur 0 -- -- 88
2019-11-25 08:00:00 7 2 Este 4 Sudeste 0 -- -- 88
2019-11-25 07:00:00 7.1 0 Calma 9 Este 0 -- -- 87
2019-11-25 06:00:00 7 6 Este 9 Este 0 -- -- 86
2019-11-25 05:00:00 7.4 0 Calma 5 Sudoeste 0 -- -- 84
2019-11-25 04:00:00 7.3 0 Calma 6 Sudoeste 0 -- -- 82
2019-11-25 03:00:00 7.9 4 Oeste 8 Sudoeste 0 -- -- 80
2019-11-25 02:00:00 8.1 5 Sudoeste 8 Oeste 0 -- -- 78
2019-11-25 01:00:00 8.2 3 Nordeste 15 Noroeste 0 -- -- 76
2019-11-25 00:00:00 8.6 9 Noroeste 17 Oeste 0 -- -- 71
2019-11-24 23:00:00 8.6 5 Sudoeste 13 Norte 0 -- -- 72
2019-11-24 22:00:00 9.2 6 Norte 21 Sudoeste 0 -- -- 70
2019-11-24 21:00:00 10 2 Sur 24 Sudoeste 0 -- -- 70
2019-11-24 20:00:00 10.9 16 Oeste 27 Oeste 0 -- -- 66
2019-11-24 19:00:00 10.9 6 Oeste 28 Oeste 0 -- -- 67
2019-11-24 18:00:00 12 17 Oeste 32 Oeste 0 -- -- 63
2019-11-24 17:00:00 13.7 21 Oeste 36 Noroeste 0 -- -- 56
2019-11-24 16:00:00 14.1 27 Oeste 47 Oeste 0 -- -- 55
2019-11-24 15:00:00 14.1 31 Oeste 50 Oeste 0 -- -- 56
2019-11-24 14:00:00 13.4 27 Noroeste 48 Oeste 0 -- -- 56
2019-11-24 13:00:00 13.9 24 Noroeste 46 Oeste 0 -- -- 56
2019-11-24 12:00:00 13.3 25 Noroeste 51 Noroeste 0 -- -- 58
2019-11-24 11:00:00 12.5 27 Oeste 44 Oeste 0 -- -- 60
2019-11-24 10:00:00 10.8 21 Noroeste 42 Oeste 0 -- -- 64
2019-11-24 09:00:00 9.8 28 Oeste 40 Oeste 0 -- -- 67
2019-11-24 08:00:00 9.2 8 Noroeste 35 Oeste 0 -- -- 68
2019-11-24 07:00:00 9.7 24 Oeste 45 Oeste 0 -- -- 66
2019-11-24 06:00:00 9.7 13 Noroeste 40 Oeste 0 -- -- 65
2019-11-24 05:00:00 9.8 24 Oeste 50 Oeste 0 -- -- 67
2019-11-24 04:00:00 10.3 29 Oeste 58 Oeste 0 -- -- 65
2019-11-24 03:00:00 10.2 27 Oeste 45 Oeste 0 -- -- 65
2019-11-24 02:00:00 10.7 27 Oeste 47 Oeste 0 -- -- 64
2019-11-24 01:00:00 10.3 33 Oeste 51 Oeste 0 -- -- 66
2019-11-24 00:00:00 10.5 30 Oeste 56 Oeste 0 -- -- 66
2019-11-23 23:00:00 10.5 31 Oeste 61 Oeste 0 -- -- 65
2019-11-23 22:00:00 10.5 35 Oeste 76 Oeste 0 -- -- 65
2019-11-23 21:00:00 10.6 34 Noroeste 68 Noroeste 0 -- -- 64
2019-11-23 20:00:00 11 40 Oeste 70 Noroeste 0 -- -- 64
2019-11-23 19:00:00 11.1 40 Oeste 75 Oeste 0 -- -- 64
2019-11-23 18:00:00 11.8 45 Oeste 69 Oeste 0 -- -- 60
2019-11-23 17:00:00 11.7 46 Oeste 69 Oeste 0 -- -- 61
2019-11-23 16:00:00 12 42 Oeste 68 Oeste 0 -- -- 61
2019-11-23 15:00:00 12.6 43 Oeste 75 Oeste 0 -- -- 60
2019-11-23 14:00:00 12.4 39 Oeste 71 Oeste 0.2 -- -- 63
2019-11-23 13:00:00 12.2 37 Oeste 58 Oeste 0 -- -- 69
2019-11-23 12:00:00 10.3 24 Oeste 35 Oeste 0 -- -- 83
2019-11-23 11:00:00 9.4 13 Oeste 35 Noroeste 0.4 -- -- 88
2019-11-23 10:00:00 10.2 20 Oeste 42 Oeste 0 -- -- 76
2019-11-23 09:00:00 9.5 6 Oeste 15 Oeste 0 -- -- 76
2019-11-23 08:00:00 9.7 5 Norte 29 Sudoeste 0 -- -- 75
2019-11-23 07:00:00 10.1 19 Sudoeste 33 Sudoeste 0 -- -- 74
2019-11-23 06:00:00 9.6 5 Norte 19 Sudoeste 0 -- -- 81
2019-11-23 05:00:00 9.9 6 Oeste 23 Sudoeste 0 -- -- 85
2019-11-23 04:00:00 9.8 0 Calma 9 Sudoeste 0 -- -- 89
2019-11-23 03:00:00 10.1 5 Sur 9 Nordeste 0 -- -- 88
2019-11-23 02:00:00 11 3 Sudoeste 12 Este 0 -- -- 82
2019-11-23 01:00:00 10.8 9 Este 22 Sudoeste 0 -- -- 88
2019-11-23 00:00:00 11.2 16 Sudoeste 57 Oeste 2 -- -- 86
2019-11-22 23:00:00 13.3 12 Sudeste 34 Sudeste 0 -- -- 85
2019-11-22 22:00:00 13.6 15 Sudeste 33 Sudeste 0 -- -- 85
2019-11-22 21:00:00 13.2 14 Sudeste 32 Sudeste 0 -- -- 88
2019-11-22 20:00:00 12.6 13 Sudeste 32 Sudeste 0 -- -- 90
2019-11-22 19:00:00 11.8 11 Sudeste 34 Sudeste 1.2 -- -- 92
2019-11-22 18:00:00 11.8 20 Sudeste 37 Sudeste 0.6 -- -- 89
2019-11-22 17:00:00 11.8 13 Sudeste 30 Sudeste 0 -- -- 85
2019-11-22 16:00:00 12.4 16 Sudeste 30 Sur 0 -- -- 81
2019-11-22 15:00:00 12.2 13 Sudeste 26 Sudeste 0.4 -- -- 82
2019-11-22 14:00:00 10.6 2 Sudoeste 9 Nordeste 0 -- -- 78
2019-11-22 13:00:00 10.3 6 Este 11 Este 0 -- -- 77
2019-11-22 12:00:00 8.9 2 Este 8 Nordeste 0 -- -- 80
2019-11-22 11:00:00 7.4 4 Sudoeste 15 Este 0 -- -- 84
2019-11-22 10:00:00 5.8 3 Sudoeste 8 Sudoeste 0 -- -- 90
2019-11-22 09:00:00 4.8 0 Calma 3 Nordeste 0 -- -- 94
2019-11-22 08:00:00 4.2 2 Este 4 Nordeste 0 -- -- 95
2019-11-22 07:00:00 3.7 2 Norte 4 Noroeste 0 -- -- 93
2019-11-22 06:00:00 4.6 0 Calma 6 Noroeste 0 -- -- 92
2019-11-22 05:00:00 4.6 0 Calma 4 Oeste 0 -- -- 91
2019-11-22 04:00:00 4.8 0 Calma 5 Oeste 0 -- -- 91
2019-11-22 03:00:00 5.3 0 Calma 10 Norte 0 -- -- 90
2019-11-22 02:00:00 5.2 3 Noroeste 6 Noroeste 0 -- -- 89
2019-11-22 01:00:00 6.2 0 Calma 5 Noroeste 0 -- -- 86
2019-11-22 00:00:00 5.8 0 Calma 7 Oeste 0 -- -- 87
2019-11-21 23:00:00 6.2 3 Oeste 5 Noroeste 0 -- -- 84
2019-11-21 22:00:00 7.6 0 Calma 5 Este 0 -- -- 79
2019-11-21 21:00:00 8.2 0 Calma 5 Sudeste 0 -- -- 77
2019-11-21 20:00:00 9.1 0 Calma 4 Nordeste 0 -- -- 74
2019-11-21 19:00:00 10 0 Calma 10 Sur 0 -- -- 71
2019-11-21 18:00:00 10.7 5 Nordeste 14 Nordeste 0 -- -- 68
2019-11-21 17:00:00 12.5 5 Nordeste 11 Este 0 -- -- 62
2019-11-21 16:00:00 13.5 6 Este 11 Este 0 -- -- 58
2019-11-21 15:00:00 13.7 2 Este 8 Nordeste 0 -- -- 57
2019-11-21 14:00:00 13.2 2 Oeste 8 Sudeste 0 -- -- 61
2019-11-21 13:00:00 12.3 6 Este 10 Nordeste 0 -- -- 66
2019-11-21 12:00:00 9 2 Oeste 5 Oeste 0 -- -- 80
2019-11-21 11:00:00 6.5 2 Sur 6 Sur 0 -- -- 89
2019-11-21 10:00:00 5.7 0 Calma 5 Sur 0 -- -- 88
2019-11-21 09:00:00 4.3 2 Sur 4 Sur 0 -- -- 91
2019-11-21 08:00:00 3.6 4 Sur 5 Sur 0 -- -- 90
2019-11-21 07:00:00 3.9 0 Calma 6 Sudeste 0 -- -- 88
2019-11-21 06:00:00 4.3 2 Oeste 4 Oeste 0 -- -- 89
2019-11-21 05:00:00 4.8 0 Calma 4 Sudeste 0 -- -- 89
2019-11-21 04:00:00 4.8 0 Calma 4 Nordeste 0 -- -- 88
2019-11-21 03:00:00 4.7 0 Calma 4 Norte 0 -- -- 89
2019-11-21 02:00:00 3.9 0 Calma 7 Oeste 0 -- -- 89
2019-11-21 01:00:00 4.1 4 Noroeste 9 Noroeste 0 -- -- 88
2019-11-21 00:00:00 4.5 0 Calma 7 Noroeste 0 -- -- 87
2019-11-20 23:00:00 4.8 2 Norte 9 Noroeste 0 -- -- 87
2019-11-20 22:00:00 5.2 0 Calma 6 Sudoeste 0 -- -- 85
2019-11-20 21:00:00 6.9 0 Calma 7 Este 0 -- -- 77
2019-11-20 20:00:00 7.7 0 Calma 3 Noroeste 0 -- -- 73
2019-11-20 19:00:00 8.5 0 Calma 4 Noroeste 0 -- -- 71
2019-11-20 18:00:00 9.9 0 Calma 7 Nordeste 0 -- -- 66
2019-11-20 17:00:00 11.4 6 Nordeste 10 Nordeste 0 -- -- 60
2019-11-20 16:00:00 11.9 4 Nordeste 10 Nordeste 0 -- -- 58
2019-11-20 15:00:00 11.5 5 Este 10 Este 0 -- -- 58
2019-11-20 14:00:00 10.1 2 Sudeste 12 Este 0 -- -- 62
2019-11-20 13:00:00 9 3 Sudoeste 6 Sudoeste 0 -- -- 65
2019-11-20 12:00:00 6.4 2 Noroeste 9 Este 0 -- -- 74
2019-11-20 11:00:00 4.5 2 Nordeste 6 Nordeste 0 -- -- 82
2019-11-20 10:00:00 2.4 0 Calma 4 Oeste 0 -- -- 90
2019-11-20 09:00:00 0.1 0 Calma 2 Oeste 0 -- -- 95
2019-11-20 08:00:00 -0.6 0 Calma 3 Norte 0 -- -- 94
2019-11-20 07:00:00 -0.6 0 Calma 3 Norte 0 -- -- 94
2019-11-20 06:00:00 -0.4 0 Calma 2 Noroeste 0 -- -- 94
2019-11-20 05:00:00 0.1 0 Calma 3 Noroeste 0 -- -- 94
2019-11-20 04:00:00 -0.2 0 Calma 4 Oeste 0 -- -- 93
2019-11-20 03:00:00 0.4 2 Norte 3 Norte 0 -- -- 92
2019-11-20 02:00:00 1.1 0 Calma 4 Sudoeste 0 -- -- 91
2019-11-20 01:00:00 1.8 0 Calma 4 Sur 0 -- -- 90
2019-11-20 00:00:00 2.2 0 Calma 4 Sudoeste 0 -- -- 90
2019-11-19 23:00:00 3.3 2 Oeste 6 Este 0 -- -- 84
2019-11-19 22:00:00 4.5 2 Nordeste 12 Sur 0 -- -- 82
2019-11-19 21:00:00 5.6 4 Sudoeste 10 Sudoeste 0 -- -- 78
2019-11-19 20:00:00 7 2 Sur 6 Este 0 -- -- 73
2019-11-19 19:00:00 7.9 3 Sur 9 Este 0 -- -- 68
2019-11-19 18:00:00 9 8 Este 10 Este 0 -- -- 64
2019-11-19 17:00:00 11.4 4 Este 7 Sudeste 0 -- -- 57
2019-11-19 16:00:00 11.7 2 Este 13 Sudeste 0 -- -- 56
2019-11-19 15:00:00 11.7 7 Sudoeste 15 Sudoeste 0 -- -- 55
2019-11-19 14:00:00 10 6 Oeste 13 Oeste 0 -- -- 59
2019-11-19 13:00:00 8.8 3 Noroeste 7 Sudoeste 0 -- -- 62
2019-11-19 12:00:00 6.4 3 Noroeste 10 Oeste 0 -- -- 71
2019-11-19 11:00:00 4.5 2 Sudoeste 8 Nordeste 0 -- -- 79
2019-11-19 10:00:00 2.4 3 Nordeste 7 Nordeste 0 -- -- 88
2019-11-19 09:00:00 0.9 3 Nordeste 5 Nordeste 0 -- -- 92
2019-11-19 08:00:00 0.2 2 Norte 5 Nordeste 0 -- -- 89
2019-11-19 07:00:00 1.8 0 Calma 10 Oeste 0 -- -- 85
2019-11-19 06:00:00 2.3 6 Sudoeste 12 Sudoeste 0 -- -- 85
2019-11-19 05:00:00 2.6 3 Sudoeste 8 Sudoeste 0 -- -- 82
2019-11-19 04:00:00 3.2 3 Oeste 18 Sudoeste 0 -- -- 79
2019-11-19 03:00:00 3.9 10 Sudoeste 21 Sur 0 -- -- 77
2019-11-19 02:00:00 4.2 7 Sudoeste 13 Sudoeste 0 -- -- 75
2019-11-19 01:00:00 4.3 6 Sudoeste 13 Sur 0 -- -- 75
2019-11-19 00:00:00 4.5 5 Sur 9 Sudoeste 0 -- -- 74
2019-11-18 23:00:00 5.1 7 Sudoeste 22 Sudoeste 0 -- -- 70
2019-11-18 22:00:00 5.7 7 Sudoeste 16 Sudoeste 0 -- -- 69
2019-11-18 21:00:00 6.1 10 Sudoeste 21 Sudoeste 0 -- -- 70
2019-11-18 20:00:00 7.3 13 Sudoeste 22 Sudoeste 0 -- -- 64
2019-11-18 19:00:00 8.9 9 Oeste 23 Oeste 0 -- -- 58
2019-11-18 18:00:00 9.8 9 Noroeste 28 Noroeste 0 -- -- 55
2019-11-18 17:00:00 12.2 18 Oeste 31 Oeste 0 -- -- 50
2019-11-18 16:00:00 13.8 5 Oeste 11 Sudoeste 0 -- -- 50
2019-11-18 15:00:00 13.5 4 Sudoeste 11 Sudoeste 0 -- -- 53
2019-11-18 14:00:00 12.6 4 Sudeste 20 Oeste 0 -- -- 57
2019-11-18 13:00:00 11.4 4 Norte 20 Oeste 0 -- -- 60
2019-11-18 12:00:00 10.7 2 Este 10 Sur 0 -- -- 68
2019-11-18 11:00:00 8.7 4 Noroeste 14 Oeste 0 -- -- 79
2019-11-18 10:00:00 7.2 5 Oeste 14 Oeste 0 -- -- 85
2019-11-18 09:00:00 5.5 3 Sudoeste 8 Sur 0 -- -- 94
2019-11-18 08:00:00 4.6 5 Sur 8 Sudeste 0 -- -- 95
2019-11-18 07:00:00 4.5 2 Este 7 Sur 0 -- -- 95
2019-11-18 06:00:00 5 4 Sur 8 Sur 0 -- -- 95
2019-11-18 05:00:00 5 0 Calma 8 Nordeste 0 -- -- 94
2019-11-18 04:00:00 5.3 6 Norte 12 Noroeste 0 -- -- 94
2019-11-18 03:00:00 5.8 0 Calma 4 Oeste 0 -- -- 92
2019-11-18 02:00:00 6.5 3 Oeste 4 Noroeste 0 -- -- 88
2019-11-18 01:00:00 7.5 0 Calma 5 Sur 0 -- -- 88
2019-11-18 00:00:00 7.7 0 Calma 7 Nordeste 0 -- -- 86
2019-11-17 23:00:00 8.1 2 Norte 7 Oeste 0 -- -- 84
2019-11-17 22:00:00 9.1 2 Sudoeste 16 Oeste 0 -- -- 81
2019-11-17 21:00:00 9.5 12 Oeste 22 Oeste 0 -- -- 79
2019-11-17 20:00:00 9 6 Oeste 13 Noroeste 0 -- -- 85
2019-11-17 19:00:00 9.5 5 Sudoeste 14 Oeste 0.2 -- -- 84
2019-11-17 18:00:00 10.2 7 Oeste 44 Oeste 0.4 -- -- 81
2019-11-17 17:00:00 12.3 13 Oeste 28 Oeste 0 -- -- 61
2019-11-17 16:00:00 12.7 9 Oeste 27 Oeste 0 -- -- 59
2019-11-17 15:00:00 12.7 22 Oeste 38 Oeste 0 -- -- 57
2019-11-17 14:00:00 13.2 19 Oeste 37 Oeste 0 -- -- 56
2019-11-17 13:00:00 11.7 29 Oeste 41 Oeste 0 -- -- 59
2019-11-17 12:00:00 11.4 24 Oeste 45 Oeste 0 -- -- 59
2019-11-17 11:00:00 9.4 23 Oeste 35 Noroeste 0 -- -- 61
2019-11-17 10:00:00 8.1 12 Oeste 33 Oeste 0 -- -- 66
2019-11-17 09:00:00 6.3 14 Oeste 33 Oeste 0 -- -- 71
2019-11-17 08:00:00 5.8 13 Sudoeste 33 Oeste 0 -- -- 70
2019-11-17 07:00:00 5.5 8 Noroeste 25 Sudoeste 0 -- -- 74
2019-11-17 06:00:00 5.5 6 Oeste 26 Noroeste 0 -- -- 74
2019-11-17 05:00:00 5.5 3 Nordeste 30 Oeste 0 -- -- 75
2019-11-17 04:00:00 6.9 19 Oeste 44 Oeste 0 -- -- 69
2019-11-17 03:00:00 6.7 22 Oeste 40 Oeste 0 -- -- 70
2019-11-17 02:00:00 5.8 13 Oeste 24 Sudoeste 0 -- -- 75
2019-11-17 01:00:00 5.7 10 Oeste 20 Oeste 0 -- -- 75
2019-11-17 00:00:00 5.8 10 Sudoeste 20 Sudoeste 0 -- -- 75
2019-11-16 23:00:00 6.7 8 Oeste 22 Oeste 0 -- -- 72
2019-11-16 22:00:00 6.5 15 Oeste 23 Sudoeste 0 -- -- 75
2019-11-16 21:00:00 5.8 14 Noroeste 24 Noroeste 0 -- -- 86
2019-11-16 20:00:00 6.5 15 Noroeste 23 Noroeste 0 -- -- 82
2019-11-16 19:00:00 6.7 12 Noroeste 19 Noroeste 0 -- -- 81
2019-11-16 18:00:00 7.4 14 Noroeste 23 Noroeste 0 -- -- 77
2019-11-16 17:00:00 8.3 14 Noroeste 24 Noroeste 0 -- -- 72
2019-11-16 16:00:00 8.9 16 Noroeste 27 Noroeste 0 -- -- 68
2019-11-16 15:00:00 8.8 10 Noroeste 22 Oeste 0 -- -- 68
2019-11-16 14:00:00 7.6 12 Noroeste 18 Noroeste 0 -- -- 71
2019-11-16 13:00:00 7.2 9 Noroeste 16 Noroeste 0 -- -- 72
2019-11-16 12:00:00 6.5 8 Noroeste 18 Noroeste 0 -- -- 77
2019-11-16 11:00:00 6.1 0 Calma 5 Oeste 0 -- -- 77
2019-11-16 10:00:00 4 0 Calma 6 Norte 0 -- -- 87
2019-11-16 09:00:00 1.5 2 Norte 5 Noroeste 0 -- -- 93
2019-11-16 08:00:00 1.4 2 Sudoeste 5 Sur 0 -- -- 90
2019-11-16 07:00:00 1.9 0 Calma 3 Sudoeste 0 -- -- 89
2019-11-16 06:00:00 2.1 0 Calma 5 Sudoeste 0 -- -- 90
2019-11-16 05:00:00 2.1 3 Sudoeste 8 Sudoeste 0 -- -- 89
2019-11-16 04:00:00 2.8 5 Sudoeste 9 Sur 0 -- -- 87
2019-11-16 03:00:00 3.2 6 Sur 9 Sudoeste 0 -- -- 86
2019-11-16 02:00:00 3.6 4 Oeste 13 Oeste 0 -- -- 85
2019-11-16 01:00:00 4 6 Sudoeste 13 Sudoeste 0 -- -- 83
2019-11-16 00:00:00 4.1 2 Sur 13 Sudoeste 0 -- -- 83
2019-11-15 23:00:00 5.1 5 Oeste 12 Noroeste 0 -- -- 79
2019-11-15 22:00:00 5.8 5 Sudoeste 26 Noroeste 0 -- -- 76
2019-11-15 21:00:00 6.7 17 Noroeste 26 Oeste 0 -- -- 70
2019-11-15 20:00:00 7.3 7 Noroeste 23 Oeste 0 -- -- 68
2019-11-15 19:00:00 7.9 12 Oeste 23 Oeste 0 -- -- 68
2019-11-15 18:00:00 8.8 9 Oeste 33 Oeste 0 -- -- 65
2019-11-15 17:00:00 9.8 14 Oeste 22 Oeste 0 -- -- 66
2019-11-15 16:00:00 10.2 9 Noroeste 15 Oeste 0 -- -- 68
2019-11-15 15:00:00 10.8 3 Oeste 8 Sudoeste 0 -- -- 60
2019-11-15 14:00:00 10.4 3 Noroeste 16 Oeste 0 -- -- 60
2019-11-15 13:00:00 10.1 5 Sudoeste 13 Sudoeste 0 -- -- 61
2019-11-15 12:00:00 8.9 4 Oeste 11 Oeste 0 -- -- 67
2019-11-15 11:00:00 7.7 0 Calma 4 Sudoeste 0 -- -- 73
2019-11-15 10:00:00 6.5 3 Sur 6 Sudoeste 0 -- -- 77
2019-11-15 09:00:00 4 3 Sur 8 Sudoeste 0 -- -- 89
2019-11-15 08:00:00 3.1 3 Sur 5 Sur 0 -- -- 91
2019-11-15 07:00:00 3.2 4 Noroeste 9 Noroeste 0 -- -- 89
2019-11-15 06:00:00 4.1 6 Noroeste 11 Noroeste 0 -- -- 87
2019-11-15 05:00:00 4.7 0 Calma 9 Sudoeste 0 -- -- 85
2019-11-15 04:00:00 5.7 5 Sudoeste 12 Sudoeste 0 -- -- 83
2019-11-15 03:00:00 6 0 Calma 10 Oeste 0 -- -- 79
2019-11-15 02:00:00 6.4 5 Noroeste 14 Oeste 0 -- -- 77
2019-11-15 01:00:00 6.4 6 Oeste 14 Oeste 0 -- -- 79
2019-11-15 00:00:00 5.6 6 Sur 9 Sur 0 -- -- 86
2019-11-14 23:00:00 6.4 3 Sudoeste 8 Sur 0 -- -- 80
2019-11-14 22:00:00 6.7 0 Calma 6 Sur 0 -- -- 77
2019-11-14 21:00:00 6.4 7 Sur 11 Sur 0 -- -- 78
2019-11-14 20:00:00 7.3 4 Este 6 Este 0 -- -- 73
2019-11-14 19:00:00 7.7 2 Nordeste 10 Oeste 0 -- -- 71
2019-11-14 18:00:00 9.4 6 Oeste 9 Sudoeste 0 -- -- 67
2019-11-14 17:00:00 11.3 5 Oeste 31 Oeste 0 -- -- 56
2019-11-14 16:00:00 11.6 22 Oeste 36 Oeste 0 -- -- 53
2019-11-14 15:00:00 11.3 27 Oeste 42 Oeste 0 -- -- 58
2019-11-14 14:00:00 10 14 Oeste 29 Sudoeste 0 -- -- 69
2019-11-14 13:00:00 7.7 12 Oeste 41 Sudoeste 0 -- -- 78
2019-11-14 12:00:00 7.3 27 Oeste 44 Oeste 0.2 -- -- 82
2019-11-14 11:00:00 7.4 11 Sudoeste 23 Oeste 0 -- -- 83
2019-11-14 10:00:00 7 14 Oeste 43 Noroeste 0.6 -- -- 86
2019-11-14 09:00:00 6.8 4 Sur 14 Sur 0.6 -- -- 94
2019-11-14 08:00:00 7 2 Sur 13 Sudoeste 0.6 -- -- 93
2019-11-14 07:00:00 7.2 2 Norte 8 Oeste 0 -- -- 89
2019-11-14 06:00:00 7.3 0 Calma 5 Oeste 0 -- -- 87
2019-11-14 05:00:00 7.6 0 Calma 8 Oeste 0 -- -- 84
2019-11-14 04:00:00 8.4 3 Este 17 Sudeste 0 -- -- 79
2019-11-14 03:00:00 9.1 5 Este 17 Sudeste 0 -- -- 75
2019-11-14 02:00:00 9.1 3 Este 12 Este 0 -- -- 77
2019-11-14 01:00:00 9.6 5 Sudeste 17 Sudeste 0 -- -- 75
2019-11-14 00:00:00 9.2 8 Sudeste 17 Sudeste 0 -- -- 76
2019-11-13 23:00:00 9.4 4 Sur 14 Sudoeste 0 -- -- 71
2019-11-13 22:00:00 9.7 6 Sudoeste 20 Sudoeste 0 -- -- 68
2019-11-13 21:00:00 10.8 12 Sudoeste 32 Noroeste 0 -- -- 60
2019-11-13 20:00:00 11.2 19 Noroeste 32 Noroeste 0 -- -- 58
2019-11-13 19:00:00 11.7 17 Noroeste 29 Oeste 0 -- -- 59
2019-11-13 18:00:00 12.8 8 Oeste 33 Oeste 0 -- -- 55
2019-11-13 17:00:00 14.4 25 Oeste 39 Oeste 0 -- -- 54
2019-11-13 16:00:00 15.2 23 Oeste 37 Oeste 0 -- -- 54
2019-11-13 15:00:00 13.9 8 Sur 13 Sudeste 0 -- -- 77
2019-11-13 14:00:00 12.5 2 Noroeste 7 Oeste 0 -- -- 80
2019-11-13 13:00:00 9.5 0 Calma 5 Sudoeste 0 -- -- 94
2019-11-13 12:00:00 8.6 3 Sur 6 Sudoeste 0.2 -- -- 94
2019-11-13 11:00:00 8.2 0 Calma 9 Sudeste 0.2 -- -- 94
2019-11-13 10:00:00 8 2 Oeste 5 Oeste 2.8 -- -- 92
2019-11-13 09:00:00 8 2 Nordeste 4 Nordeste 2 -- -- 90
2019-11-13 08:00:00 8.5 0 Calma 2 Sur 1 -- -- 89
2019-11-13 07:00:00 9 0 Calma 4 Sudeste 0.6 -- -- 85
2019-11-13 06:00:00 9.5 2 Sudoeste 6 Este 0 -- -- 79
2019-11-13 05:00:00 9.9 3 Sur 7 Sur 0 -- -- 73
2019-11-13 04:00:00 10.2 4 Sudoeste 17 Noroeste 0 -- -- 71
2019-11-13 03:00:00 10.7 8 Oeste 19 Noroeste 0 -- -- 69
2019-11-13 02:00:00 10.4 9 Oeste 24 Oeste 0 -- -- 70
2019-11-13 01:00:00 10.9 13 Oeste 33 Oeste 0 -- -- 67
2019-11-13 00:00:00 11.5 18 Oeste 36 Oeste 0 -- -- 64
2019-11-12 23:00:00 11.4 22 Oeste 35 Oeste 0 -- -- 65
2019-11-12 22:00:00 10.9 13 Oeste 30 Oeste 0 -- -- 66
2019-11-12 21:00:00 10.7 11 Oeste 24 Oeste 0 -- -- 65
2019-11-12 20:00:00 11.6 11 Noroeste 26 Noroeste 0 -- -- 61
2019-11-12 19:00:00 12 6 Oeste 27 Noroeste 0 -- -- 59
2019-11-12 18:00:00 12.7 17 Oeste 56 Oeste 0 -- -- 57
2019-11-12 17:00:00 14.1 31 Oeste 60 Oeste 0 -- -- 52
2019-11-12 16:00:00 14.7 35 Noroeste 54 Noroeste 0 -- -- 52
2019-11-12 15:00:00 15.1 34 Noroeste 59 Oeste 0 -- -- 50
2019-11-12 14:00:00 15.1 33 Oeste 50 Oeste 0 -- -- 50
2019-11-12 13:00:00 14.5 35 Oeste 49 Oeste 0 -- -- 52
2019-11-12 12:00:00 13.8 30 Noroeste 46 Oeste 0 -- -- 55
2019-11-12 11:00:00 12.2 20 Noroeste 33 Noroeste 0 -- -- 62
2019-11-12 10:00:00 10.1 5 Oeste 11 Oeste 0 -- -- 70
2019-11-12 09:00:00 8.4 3 Nordeste 17 Oeste 0 -- -- 74
2019-11-12 08:00:00 6.8 0 Calma 14 Noroeste 0 -- -- 76
2019-11-12 07:00:00 7.4 5 Sudoeste 16 Oeste 0 -- -- 72
2019-11-12 06:00:00 7.8 4 Oeste 18 Sudoeste 0 -- -- 67
2019-11-12 05:00:00 8 2 Nordeste 31 Noroeste 0 -- -- 67
2019-11-12 04:00:00 8.4 17 Oeste 31 Oeste 0 -- -- 67
2019-11-12 03:00:00 8.7 13 Oeste 23 Oeste 0 -- -- 65
2019-11-12 02:00:00 8.9 12 Oeste 25 Oeste 0 -- -- 65
2019-11-12 01:00:00 9 10 Oeste 32 Noroeste 0 -- -- 66
2019-11-12 00:00:00 9.3 12 Noroeste 46 Oeste 0 -- -- 63
2019-11-11 23:00:00 9.6 27 Noroeste 49 Noroeste 0 -- -- 61
2019-11-11 22:00:00 10 29 Noroeste 51 Noroeste 0 -- -- 60
2019-11-11 21:00:00 10.5 26 Noroeste 57 Noroeste 0 -- -- 60
2019-11-11 20:00:00 11.1 27 Noroeste 47 Oeste 0 -- -- 62
2019-11-11 19:00:00 11.4 17 Oeste 35 Oeste 0 -- -- 67
2019-11-11 18:00:00 11.6 17 Noroeste 41 Noroeste 0 -- -- 69
2019-11-11 17:00:00 12.2 14 Noroeste 37 Noroeste 0 -- -- 69
2019-11-11 16:00:00 13.2 19 Noroeste 38 Oeste 0 -- -- 65
2019-11-11 15:00:00 13.3 30 Oeste 45 Oeste 0 -- -- 61
2019-11-11 14:00:00 14.4 20 Noroeste 37 Noroeste 0 -- -- 55
2019-11-11 13:00:00 12.9 12 Noroeste 21 Oeste 0 -- -- 57
2019-11-11 12:00:00 11.8 8 Oeste 17 Noroeste 0 -- -- 62
2019-11-11 11:00:00 9.8 4 Oeste 8 Oeste 0 -- -- 71
2019-11-11 10:00:00 7.6 4 Oeste 13 Oeste 0 -- -- 78
2019-11-11 09:00:00 6.1 3 Sudoeste 5 Sudoeste 0 -- -- 81
2019-11-11 08:00:00 5.4 0 Calma 14 Oeste 0 -- -- 81
2019-11-11 07:00:00 5 3 Sudoeste 9 Sudoeste 0 -- -- 82
2019-11-11 06:00:00 5 5 Sudoeste 13 Oeste 0 -- -- 81
2019-11-11 05:00:00 4.7 7 Sudoeste 13 Oeste 0 -- -- 81
2019-11-11 04:00:00 4.8 6 Sudoeste 15 Sudoeste 0 -- -- 79
2019-11-11 03:00:00 4.5 7 Sur 17 Sudoeste 0 -- -- 79
2019-11-11 02:00:00 5.5 7 Noroeste 20 Oeste 0 -- -- 75
2019-11-11 01:00:00 5.8 7 Noroeste 25 Oeste 0 -- -- 73
2019-11-11 00:00:00 5.9 12 Oeste 19 Oeste 0 -- -- 73
2019-11-10 23:00:00 5.7 3 Oeste 13 Norte 0 -- -- 73
2019-11-10 22:00:00 6.5 8 Sudoeste 14 Oeste 0 -- -- 70
2019-11-10 21:00:00 6.8 9 Oeste 27 Oeste 0 -- -- 71
2019-11-10 20:00:00 7.3 13 Oeste 35 Oeste 0 -- -- 70
2019-11-10 19:00:00 7.8 19 Oeste 52 Oeste 0 -- -- 69
2019-11-10 18:00:00 8.6 28 Noroeste 45 Noroeste 0 -- -- 67
2019-11-10 17:00:00 10 28 Noroeste 53 Noroeste 0 -- -- 62
2019-11-10 16:00:00 10.2 30 Noroeste 59 Oeste 0 -- -- 61
2019-11-10 15:00:00 10.6 29 Noroeste 63 Oeste 0 -- -- 59
2019-11-10 14:00:00 11.3 34 Noroeste 61 Noroeste 0 -- -- 59
2019-11-10 13:00:00 11.6 41 Noroeste 64 Oeste 0 -- -- 57
2019-11-10 12:00:00 10.7 36 Oeste 58 Noroeste 0 -- -- 60
2019-11-10 11:00:00 9.7 30 Noroeste 54 Noroeste 0 -- -- 62
2019-11-10 10:00:00 8.7 31 Noroeste 55 Oeste 0 -- -- 67
2019-11-10 09:00:00 7.6 33 Noroeste 54 Noroeste 0 -- -- 70
2019-11-10 08:00:00 7.2 27 Noroeste 43 Noroeste 0 -- -- 72
2019-11-10 07:00:00 7.6 24 Noroeste 45 Oeste 0 -- -- 71
2019-11-10 06:00:00 7.8 28 Noroeste 52 Noroeste 0 -- -- 71
2019-11-10 05:00:00 8.2 32 Noroeste 58 Noroeste 0 -- -- 70
2019-11-10 04:00:00 8.7 30 Noroeste 55 Oeste 0 -- -- 68
2019-11-10 03:00:00 9.6 21 Oeste 45 Oeste 0 -- -- 64
2019-11-10 02:00:00 9.5 23 Oeste 48 Sudoeste 0 -- -- 76
2019-11-10 01:00:00 11 9 Noroeste 59 Noroeste 0 -- -- 64
2019-11-10 00:00:00 11.5 35 Noroeste 56 Noroeste 0 -- -- 68
2019-11-09 23:00:00 11.3 6 Noroeste 17 Oeste 0 -- -- 67
2019-11-09 22:00:00 11.3 9 Noroeste 17 Noroeste 0 -- -- 65
2019-11-09 21:00:00 11.6 13 Oeste 21 Oeste 0 -- -- 63
2019-11-09 20:00:00 12 9 Oeste 17 Oeste 0 -- -- 60
2019-11-09 19:00:00 13 15 Oeste 27 Oeste 0 -- -- 55
2019-11-09 18:00:00 13.3 15 Oeste 32 Oeste 0 -- -- 52
2019-11-09 17:00:00 13.9 22 Oeste 39 Oeste 0 -- -- 49
2019-11-09 16:00:00 14.1 22 Oeste 42 Oeste 0 -- -- 50
2019-11-09 15:00:00 14.8 27 Oeste 51 Oeste 0 -- -- 51
2019-11-09 14:00:00 16.1 25 Noroeste 45 Oeste 0 -- -- 47
2019-11-09 13:00:00 14.2 23 Noroeste 45 Oeste 0 -- -- 53
2019-11-09 12:00:00 14.1 26 Noroeste 48 Noroeste 0 -- -- 54
2019-11-09 11:00:00 12.7 25 Oeste 36 Oeste 0 -- -- 59
2019-11-09 10:00:00 11.4 12 Oeste 19 Noroeste 0 -- -- 63
2019-11-09 09:00:00 9 4 Oeste 11 Oeste 0 -- -- 72
2019-11-09 08:00:00 7.9 8 Oeste 25 Noroeste 0 -- -- 75
2019-11-09 07:00:00 8.7 11 Noroeste 39 Noroeste 0 -- -- 71
2019-11-09 06:00:00 9.1 27 Noroeste 44 Noroeste 0 -- -- 69
2019-11-09 05:00:00 9.1 22 Noroeste 39 Noroeste 0 -- -- 69
2019-11-09 04:00:00 8.9 21 Noroeste 44 Noroeste 0 -- -- 69
2019-11-09 03:00:00 8.9 19 Noroeste 45 Noroeste 0 -- -- 70
2019-11-09 02:00:00 8.7 24 Noroeste 51 Oeste 0 -- -- 73
2019-11-09 01:00:00 8.9 32 Noroeste 48 Noroeste 0 -- -- 72
2019-11-09 00:00:00 8.3 26 Noroeste 50 Noroeste 0 -- -- 72
2019-11-08 23:00:00 8.6 27 Noroeste 55 Oeste 0 -- -- 74
2019-11-08 22:00:00 8.8 33 Oeste 58 Oeste 0 -- -- 72
2019-11-08 21:00:00 8.4 26 Noroeste 43 Noroeste 0 -- -- 72
2019-11-08 20:00:00 8.4 23 Noroeste 54 Noroeste 0 -- -- 72
2019-11-08 19:00:00 8.7 32 Noroeste 53 Noroeste 0 -- -- 69
2019-11-08 18:00:00 9.5 30 Noroeste 63 Oeste 0 -- -- 67
2019-11-08 17:00:00 10.3 41 Oeste 86 Oeste 0 -- -- 63
2019-11-08 16:00:00 12.3 42 Oeste 64 Oeste 0 -- -- 54
2019-11-08 15:00:00 13.3 34 Oeste 55 Noroeste 0 -- -- 48
2019-11-08 14:00:00 14 36 Oeste 67 Oeste 0 -- -- 44
2019-11-08 13:00:00 13 35 Oeste 69 Oeste 0 -- -- 47
2019-11-08 12:00:00 12.5 40 Oeste 73 Oeste 0 -- -- 49
2019-11-08 11:00:00 11.4 26 Oeste 42 Oeste 0 -- -- 52
2019-11-08 10:00:00 9.4 26 Oeste 42 Oeste 0 -- -- 59
2019-11-08 09:00:00 7.4 9 Oeste 18 Oeste 0 -- -- 68
2019-11-08 08:00:00 6.4 17 Oeste 26 Oeste 0 -- -- 69
2019-11-08 07:00:00 6.2 8 Noroeste 31 Oeste 0 -- -- 69
2019-11-08 06:00:00 6.5 19 Oeste 28 Oeste 0 -- -- 69
2019-11-08 05:00:00 6 5 Sur 22 Oeste 0 -- -- 76
2019-11-08 04:00:00 7.6 17 Oeste 36 Oeste 0 -- -- 67
2019-11-08 03:00:00 7.6 13 Noroeste 30 Oeste 0 -- -- 66
2019-11-08 02:00:00 8.1 26 Oeste 35 Oeste 0 -- -- 70
2019-11-08 01:00:00 7.7 4 Norte 26 Oeste 0 -- -- 70
2019-11-08 00:00:00 8.1 11 Oeste 26 Noroeste 0 -- -- 73
2019-11-07 23:00:00 8.7 9 Noroeste 24 Noroeste 0 -- -- 73
2019-11-07 22:00:00 9.9 19 Noroeste 29 Oeste 0 -- -- 68
2019-11-07 21:00:00 9.9 9 Oeste 22 Oeste 0 -- -- 73
2019-11-07 20:00:00 10.2 6 Sur 12 Sur 0 -- -- 68
2019-11-07 19:00:00 11.3 3 Sudoeste 21 Oeste 0 -- -- 59
2019-11-07 18:00:00 12.5 9 Oeste 24 Oeste 0 -- -- 56
2019-11-07 17:00:00 13.8 15 Oeste 40 Noroeste 0 -- -- 51
2019-11-07 16:00:00 14.7 21 Noroeste 47 Noroeste 0 -- -- 50
2019-11-07 15:00:00 14.5 24 Noroeste 43 Oeste 0 -- -- 54
2019-11-07 14:00:00 13.6 23 Noroeste 42 Oeste 0 -- -- 61
2019-11-07 13:00:00 14.1 13 Noroeste 22 Oeste 0 -- -- 69
2019-11-07 12:00:00 14 8 Noroeste 15 Noroeste 0 -- -- 68
2019-11-07 11:00:00 12 3 Oeste 6 Oeste 0 -- -- 72
2019-11-07 10:00:00 9.5 0 Calma 2 Norte 0 -- -- 82
2019-11-07 09:00:00 8.4 0 Calma 3 Nordeste 0 -- -- 88
2019-11-07 08:00:00 7.4 0 Calma 4 Noroeste 0 -- -- 89
2019-11-07 07:00:00 7.9 3 Noroeste 7 Oeste 0 -- -- 86
2019-11-07 06:00:00 8.8 0 Calma 4 Noroeste 0 -- -- 82
2019-11-07 05:00:00 9.3 0 Calma 3 Sur 0 -- -- 77
2019-11-07 04:00:00 10 0 Calma 5 Sudoeste 0 -- -- 73
2019-11-07 03:00:00 10.5 5 Sur 8 Sudeste 0 -- -- 68
2019-11-07 02:00:00 11 0 Calma 14 Sudoeste 0 -- -- 66
2019-11-07 01:00:00 11.1 4 Oeste 25 Oeste 0 -- -- 66
2019-11-07 00:00:00 11.2 9 Sudoeste 16 Sudoeste 0 -- -- 69
2019-11-06 23:00:00 11.6 7 Sur 15 Sudoeste 0 -- -- 67
2019-11-06 22:00:00 11.9 9 Oeste 19 Noroeste 0 -- -- 64
2019-11-06 21:00:00 12.3 7 Noroeste 20 Noroeste 0 -- -- 63
2019-11-06 20:00:00 12.8 13 Noroeste 23 Noroeste 0 -- -- 60
2019-11-06 19:00:00 13.8 9 Oeste 31 Oeste 0 -- -- 57
2019-11-06 18:00:00 14.3 13 Oeste 40 Oeste 0 -- -- 56
2019-11-06 17:00:00 15.6 21 Oeste 41 Oeste 0 -- -- 51
2019-11-06 16:00:00 16.9 31 Oeste 46 Oeste 0 -- -- 47
2019-11-06 15:00:00 17.2 26 Noroeste 44 Oeste 0 -- -- 48
2019-11-06 14:00:00 16.9 28 Noroeste 47 Noroeste 0 -- -- 50
2019-11-06 13:00:00 16.6 32 Oeste 57 Oeste 0 -- -- 49
2019-11-06 12:00:00 15.9 32 Noroeste 58 Oeste 0 -- -- 51
2019-11-06 11:00:00 15 32 Oeste 52 Oeste 0 -- -- 55
2019-11-06 10:00:00 13.5 31 Oeste 58 Oeste 0 -- -- 61
2019-11-06 09:00:00 12.1 34 Oeste 51 Oeste 0 -- -- 65
2019-11-06 08:00:00 10.8 22 Oeste 40 Oeste 0 -- -- 72
2019-11-06 07:00:00 10.9 23 Oeste 42 Oeste 0 -- -- 72
2019-11-06 06:00:00 10 18 Oeste 25 Oeste 0 -- -- 76
2019-11-06 05:00:00 11.1 17 Oeste 36 Oeste 0 -- -- 70
2019-11-06 04:00:00 11.3 17 Oeste 44 Oeste 0 -- -- 68
2019-11-06 03:00:00 11.1 17 Oeste 40 Oeste 0 -- -- 67
2019-11-06 02:00:00 11 17 Oeste 45 Oeste 0 -- -- 68
2019-11-06 01:00:00 11.3 25 Oeste 47 Oeste 0 -- -- 68
2019-11-06 00:00:00 11.3 27 Oeste 42 Oeste 0 -- -- 67